sensor_id;sensor_type;location;lat;lon;timestamp;pressure;altitude;pressure_sealevel;temperature;humidity
46724;BME280;32463;48.298;11.620;2023-01-27T00:00:51;96356.56;;;-1.67;100.00
46724;BME280;32463;48.298;11.620;2023-01-27T00:03:18;96358.78;;;-1.61;100.00
46724;BME280;32463;48.298;11.620;2023-01-27T00:05:45;96363.53;;;-1.55;100.00
46724;BME280;32463;48.298;11.620;2023-01-27T00:08:13;96363.84;;;-1.61;100.00
46724;BME280;32463;48.298;11.620;2023-01-27T00:10:40;96355.50;;;-1.63;100.00
46724;BME280;32463;48.298;11.620;2023-01-27T00:13:09;96344.75;;;-1.68;100.00
46724;BME280;32463;48.298;11.620;2023-01-27T00:15:51;96366.41;;;-1.61;100.00
46724;BME280;32463;48.298;11.620;2023-01-27T00:18:18;96355.56;;;-1.64;100.00
46724;BME280;32463;48.298;11.620;2023-01-27T00:20:46;96359.84;;;-1.65;100.00
46724;BME280;32463;48.298;11.620;2023-01-27T00:23:29;96359.91;;;-1.66;100.00
46724;BME280;32463;48.298;11.620;2023-01-27T00:26:16;96354.91;;;-1.68;100.00
46724;BME280;32463;48.298;11.620;2023-01-27T00:28:44;96362.38;;;-1.65;100.00
46724;BME280;32463;48.298;11.620;2023-01-27T00:31:13;96360.41;;;-1.60;100.00
46724;BME280;32463;48.298;11.620;2023-01-27T00:33:57;96357.63;;;-1.55;100.00
46724;BME280;32463;48.298;11.620;2023-01-27T00:36:29;96347.69;;;-1.60;100.00
46724;BME280;32463;48.298;11.620;2023-01-27T00:38:56;96346.63;;;-1.56;100.00
46724;BME280;32463;48.298;11.620;2023-01-27T00:41:22;96346.25;;;-1.50;100.00
46724;BME280;32463;48.298;11.620;2023-01-27T00:43:51;96343.88;;;-1.53;100.00
46724;BME280;32463;48.298;11.620;2023-01-27T00:46:20;96342.81;;;-1.49;100.00
46724;BME280;32463;48.298;11.620;2023-01-27T00:48:47;96346.75;;;-1.43;100.00
46724;BME280;32463;48.298;11.620;2023-01-27T00:51:13;96348.38;;;-1.42;100.00
46724;BME280;32463;48.298;11.620;2023-01-27T00:53:41;96354.13;;;-1.39;100.00
46724;BME280;32463;48.298;11.620;2023-01-27T00:56:08;96355.44;;;-1.31;100.00
46724;BME280;32463;48.298;11.620;2023-01-27T00:58:34;96347.97;;;-1.34;100.00
46724;BME280;32463;48.298;11.620;2023-01-27T01:01:04;96361.34;;;-1.47;100.00
46724;BME280;32463;48.298;11.620;2023-01-27T01:03:32;96356.78;;;-1.56;100.00
46724;BME280;32463;48.298;11.620;2023-01-27T01:06:01;96359.66;;;-1.62;100.00
46724;BME280;32463;48.298;11.620;2023-01-27T01:08:30;96364.25;;;-1.68;100.00
46724;BME280;32463;48.298;11.620;2023-01-27T01:10:58;96369.19;;;-1.65;100.00
46724;BME280;32463;48.298;11.620;2023-01-27T01:13:25;96374.19;;;-1.64;100.00
46724;BME280;32463;48.298;11.620;2023-01-27T01:15:53;96374.34;;;-1.67;100.00
46724;BME280;32463;48.298;11.620;2023-01-27T01:18:20;96380.16;;;-1.65;100.00
46724;BME280;32463;48.298;11.620;2023-01-27T01:20:46;96376.47;;;-1.59;100.00
46724;BME280;32463;48.298;11.620;2023-01-27T01:23:14;96381.88;;;-1.65;100.00
46724;BME280;32463;48.298;11.620;2023-01-27T01:25:41;96372.22;;;-1.59;100.00
46724;BME280;32463;48.298;11.620;2023-01-27T01:28:08;96363.84;;;-1.61;100.00
46724;BME280;32463;48.298;11.620;2023-01-27T01:30:35;96363.53;;;-1.55;100.00
46724;BME280;32463;48.298;11.620;2023-01-27T01:33:02;96364.22;;;-1.53;100.00
46724;BME280;32463;48.298;11.620;2023-01-27T01:35:29;96366.59;;;-1.50;100.00
46724;BME280;32463;48.298;11.620;2023-01-27T01:37:56;96357.53;;;-1.54;100.00
46724;BME280;32463;48.298;11.620;2023-01-27T01:40:22;96353.16;;;-1.52;100.00
46724;BME280;32463;48.298;11.620;2023-01-27T01:45:46;96355.31;;;-1.60;100.00
46724;BME280;32463;48.298;11.620;2023-01-27T01:51:08;96364.50;;;-1.57;100.00
46724;BME280;32463;48.298;11.620;2023-01-27T01:53:46;96361.88;;;-1.56;100.00
46724;BME280;32463;48.298;11.620;2023-01-27T01:56:41;96373.59;;;-1.69;100.00
46724;BME280;32463;48.298;11.620;2023-01-27T01:59:14;96389.09;;;-1.74;100.00
46724;BME280;32463;48.298;11.620;2023-01-27T02:01:42;96390.25;;;-1.79;100.00
46724;BME280;32463;48.298;11.620;2023-01-27T02:04:15;96369.19;;;-1.81;100.00
46724;BME280;32463;48.298;11.620;2023-01-27T16:03:49;96526.69;;;-0.85;100.00
46724;BME280;32463;48.298;11.620;2023-01-27T16:06:22;96527.31;;;-0.82;100.00
46724;BME280;32463;48.298;11.620;2023-01-27T16:08:50;96527.00;;;-0.76;100.00
46724;BME280;32463;48.298;11.620;2023-01-27T16:11:38;96528.47;;;-0.72;100.00
46724;BME280;32463;48.298;11.620;2023-01-27T16:16:44;96535.13;;;-0.69;100.00
46724;BME280;32463;48.298;11.620;2023-01-27T16:22:11;96531.53;;;-0.81;100.00
46724;BME280;32463;48.298;11.620;2023-01-27T16:24:46;96536.69;;;-0.82;100.00
46724;BME280;32463;48.298;11.620;2023-01-27T16:29:56;96542.09;;;-0.73;100.00
46724;BME280;32463;48.298;11.620;2023-01-27T16:32:27;96532.09;;;-0.76;100.00
46724;BME280;32463;48.298;11.620;2023-01-27T16:35:03;96542.75;;;-0.69;100.00
46724;BME280;32463;48.298;11.620;2023-01-27T16:37:34;96546.22;;;-0.70;100.00
46724;BME280;32463;48.298;11.620;2023-01-27T16:40:16;96542.84;;;-0.71;100.00
46724;BME280;32463;48.298;11.620;2023-01-27T16:42:55;96532.00;;;-0.74;100.00
46724;BME280;32463;48.298;11.620;2023-01-27T16:45:26;96543.59;;;-0.69;100.00
46724;BME280;32463;48.298;11.620;2023-01-27T16:48:02;96541.44;;;-0.76;100.00
46724;BME280;32463;48.298;11.620;2023-01-27T16:50:38;96548.91;;;-0.73;100.00
46724;BME280;32463;48.298;11.620;2023-01-27T16:53:17;96540.28;;;-0.71;100.00
46724;BME280;32463;48.298;11.620;2023-01-27T16:55:58;96546.88;;;-0.66;100.00
46724;BME280;32463;48.298;11.620;2023-01-27T16:58:27;96549.31;;;-0.65;100.00
46724;BME280;32463;48.298;11.620;2023-01-27T17:00:55;96539.47;;;-0.71;100.00
46724;BME280;32463;48.298;11.620;2023-01-27T17:03:35;96546.88;;;-0.66;100.00
46724;BME280;32463;48.298;11.620;2023-01-27T17:06:06;96550.22;;;-0.66;100.00
46724;BME280;32463;48.298;11.620;2023-01-27T17:08:42;96545.13;;;-0.66;100.00
46724;BME280;32463;48.298;11.620;2023-01-27T17:16:30;96555.69;;;-0.58;100.00
46724;BME280;32463;48.298;11.620;2023-01-27T17:19:09;96555.44;;;-0.53;100.00
46724;BME280;32463;48.298;11.620;2023-01-27T17:21:45;96552.31;;;-0.58;100.00
46724;BME280;32463;48.298;11.620;2023-01-27T17:24:22;96544.88;;;-0.61;100.00
46724;BME280;32463;48.298;11.620;2023-01-27T17:27:13;96566.41;;;-0.67;100.00
46724;BME280;32463;48.298;11.620;2023-01-27T17:29:44;96561.66;;;-0.73;100.00
46724;BME280;32463;48.298;11.620;2023-01-27T17:34:47;96560.66;;;-0.71;100.00
46724;BME280;32463;48.298;11.620;2023-01-27T17:37:15;96574.63;;;-0.62;100.00
46724;BME280;32463;48.298;11.620;2023-01-27T17:39:44;96580.88;;;-0.68;100.00
46724;BME280;32463;48.298;11.620;2023-01-27T17:42:15;96577.41;;;-0.66;100.00
46724;BME280;32463;48.298;11.620;2023-01-27T17:44:44;96576.09;;;-0.74;100.00
46724;BME280;32463;48.298;11.620;2023-01-27T17:47:16;96581.84;;;-0.70;100.00
46724;BME280;32463;48.298;11.620;2023-01-27T17:49:44;96578.22;;;-0.82;100.00
46724;BME280;32463;48.298;11.620;2023-01-27T17:52:19;96581.53;;;-0.80;100.00
46724;BME280;32463;48.298;11.620;2023-01-27T17:54:47;96594.66;;;-0.72;100.00
46724;BME280;32463;48.298;11.620;2023-01-27T17:57:28;96580.44;;;-0.76;100.00
46724;BME280;32463;48.298;11.620;2023-01-27T18:00:07;96593.00;;;-0.73;100.00
46724;BME280;32463;48.298;11.620;2023-01-27T18:02:42;96594.31;;;-0.65;100.00
46724;BME280;32463;48.298;11.620;2023-01-27T18:05:20;96595.47;;;-0.71;100.00
46724;BME280;32463;48.298;11.620;2023-01-27T18:07:48;96593.50;;;-0.82;100.00
46724;BME280;32463;48.298;11.620;2023-01-27T18:12:49;96590.53;;;-0.90;100.00
46724;BME280;32463;48.298;11.620;2023-01-27T18:15:58;96598.75;;;-0.85;100.00
46724;BME280;32463;48.298;11.620;2023-01-27T18:18:33;96606.16;;;-0.80;100.00
46724;BME280;32463;48.298;11.620;2023-01-27T18:21:03;96606.38;;;-0.85;100.00
46724;BME280;32463;48.298;11.620;2023-01-27T18:23:51;96613.38;;;-0.88;100.00
46724;BME280;32463;48.298;11.620;2023-01-27T18:26:38;96618.28;;;-0.85;100.00
46724;BME280;32463;48.298;11.620;2023-01-27T18:29:13;96617.31;;;-0.83;100.00
46724;BME280;32463;48.298;11.620;2023-01-27T18:34:25;96609.44;;;-0.94;100.00
46724;BME280;32463;48.298;11.620;2023-01-27T18:36:53;96622.41;;;-0.83;100.00
46724;BME280;32463;48.298;11.620;2023-01-27T18:41:50;96618.72;;;-0.93;100.00
46724;BME280;32463;48.298;11.620;2023-01-27T18:44:16;96629.81;;;-0.94;100.00
46724;BME280;32463;48.298;11.620;2023-01-27T18:46:43;96628.63;;;-1.04;100.00
46724;BME280;32463;48.298;11.620;2023-01-27T18:49:11;96628.31;;;-0.98;100.00
46724;BME280;32463;48.298;11.620;2023-01-27T18:51:37;96625.03;;;-1.00;100.00
46724;BME280;32463;48.298;11.620;2023-01-27T18:54:04;96617.16;;;-0.95;100.00
46724;BME280;32463;48.298;11.620;2023-01-27T18:56:31;96619.88;;;-0.98;100.00
46724;BME280;32463;48.298;11.620;2023-01-27T18:58:57;96617.81;;;-0.92;100.00
46724;BME280;32463;48.298;11.620;2023-01-27T19:01:24;96617.09;;;-0.94;100.00
46724;BME280;32463;48.298;11.620;2023-01-27T19:03:50;96625.03;;;-1.00;100.00
46724;BME280;32463;48.298;11.620;2023-01-27T19:06:21;96623.72;;;-1.07;100.00
46724;BME280;32463;48.298;11.620;2023-01-27T19:08:51;96626.34;;;-1.09;100.00
46724;BME280;32463;48.298;11.620;2023-01-27T19:11:18;96628.94;;;-1.10;100.00
46724;BME280;32463;48.298;11.620;2023-01-27T19:13:45;96620.41;;;-1.09;100.00
46724;BME280;32463;48.298;11.620;2023-01-27T19:16:15;96621.75;;;-1.02;100.00
46724;BME280;32463;48.298;11.620;2023-01-27T19:18:42;96622.56;;;-1.02;100.00
46724;BME280;32463;48.298;11.620;2023-01-27T19:21:14;96612.63;;;-1.06;100.00
46724;BME280;32463;48.298;11.620;2023-01-27T19:23:41;96617.63;;;-1.05;100.00
46724;BME280;32463;48.298;11.620;2023-01-27T19:26:14;96614.03;;;-1.00;100.00
46724;BME280;32463;48.298;11.620;2023-01-27T19:28:45;96612.47;;;-1.03;100.00
46724;BME280;32463;48.298;11.620;2023-01-27T19:31:14;96613.53;;;-1.07;100.00
46724;BME280;32463;48.298;11.620;2023-01-27T19:33:40;96613.84;;;-1.13;100.00
46724;BME280;32463;48.298;11.620;2023-01-27T19:41:26;96610.72;;;-1.18;100.00
46724;BME280;32463;48.298;11.620;2023-01-27T19:43:53;96625.81;;;-1.15;100.00
46724;BME280;32463;48.298;11.620;2023-01-27T19:46:20;96626.13;;;-1.21;100.00
46724;BME280;32463;48.298;11.620;2023-01-27T19:48:48;96624.34;;;-1.19;100.00
46724;BME280;32463;48.298;11.620;2023-01-27T19:51:15;96635.25;;;-1.17;100.00
46724;BME280;32463;48.298;11.620;2023-01-27T19:53:43;96640.78;;;-1.09;100.00
46724;BME280;32463;48.298;11.620;2023-01-27T19:56:17;96642.41;;;-1.08;100.00
46724;BME280;32463;48.298;11.620;2023-01-27T19:58:45;96640.53;;;-1.05;100.00
46724;BME280;32463;48.298;11.620;2023-01-27T20:01:14;96634.19;;;-1.13;100.00
46724;BME280;32463;48.298;11.620;2023-01-27T20:03:40;96632.41;;;-1.11;100.00
46724;BME280;32463;48.298;11.620;2023-01-27T20:06:17;96629.25;;;-1.16;100.00
46724;BME280;32463;48.298;11.620;2023-01-27T20:08:45;96636.06;;;-1.17;100.00
46724;BME280;32463;48.298;11.620;2023-01-27T20:11:33;96643.47;;;-1.12;100.00
46724;BME280;32463;48.298;11.620;2023-01-27T20:14:05;96640.03;;;-1.11;100.00
46724;BME280;32463;48.298;11.620;2023-01-27T20:16:32;96644.53;;;-1.16;100.00
46724;BME280;32463;48.298;11.620;2023-01-27T20:18:59;96642.13;;;-1.19;100.00
46724;BME280;32463;48.298;11.620;2023-01-27T20:21:26;96636.06;;;-1.17;100.00
46724;BME280;32463;48.298;11.620;2023-01-27T20:23:55;96636.19;;;-1.03;100.00
46724;BME280;32463;48.298;11.620;2023-01-27T20:26:21;96650.63;;;-1.03;100.00
46724;BME280;32463;48.298;11.620;2023-01-27T20:28:48;96641.91;;;-1.15;100.00
46724;BME280;32463;48.298;11.620;2023-01-27T20:31:17;96650.13;;;-1.10;100.00
46724;BME280;32463;48.298;11.620;2023-01-27T20:33:44;96655.88;;;-1.06;100.00
46724;BME280;32463;48.298;11.620;2023-01-27T20:36:17;96655.53;;;-1.16;100.00
46724;BME280;32463;48.298;11.620;2023-01-27T20:38:43;96656.19;;;-1.12;100.00
46724;BME280;32463;48.298;11.620;2023-01-27T20:41:13;96651.84;;;-1.10;100.00
46724;BME280;32463;48.298;11.620;2023-01-27T20:43:40;96645.19;;;-1.13;100.00
46724;BME280;32463;48.298;11.620;2023-01-27T20:46:09;96649.22;;;-1.09;100.00
46724;BME280;32463;48.298;11.620;2023-01-27T20:48:36;96656.78;;;-1.07;100.00
46724;BME280;32463;48.298;11.620;2023-01-27T20:51:05;96656.63;;;-1.04;100.00
46724;BME280;32463;48.298;11.620;2023-01-27T20:53:34;96656.78;;;-1.07;100.00
46724;BME280;32463;48.298;11.620;2023-01-27T20:56:04;96664.66;;;-1.12;100.00
46724;BME280;32463;48.298;11.620;2023-01-27T20:58:31;96655.38;;;-1.13;100.00
46724;BME280;32463;48.298;11.620;2023-01-27T21:01:14;96661.13;;;-1.09;100.00
46724;BME280;32463;48.298;11.620;2023-01-27T21:03:41;96661.63;;;-1.03;100.00
46724;BME280;32463;48.298;11.620;2023-01-27T21:06:10;96661.13;;;-1.09;100.00
46724;BME280;32463;48.298;11.620;2023-01-27T21:08:37;96663.22;;;-1.17;100.00
46724;BME280;32463;48.298;11.620;2023-01-27T21:11:05;96658.63;;;-1.26;100.00
46724;BME280;32463;48.298;11.620;2023-01-27T21:13:35;96677.19;;;-1.24;100.00
46724;BME280;32463;48.298;11.620;2023-01-27T21:16:01;96672.41;;;-1.30;100.00
